Time;durP1;ratioP1;P1;durP2;ratioP2;P2;SDS_P1;SDS_P2;PMS_P1;PMS_P2;Temp;Humidity;BMP_temperature;BMP_pressure;BME280_temperature;BME280_humidity;BME280_pressure;Samples;Min_cycle;Max_cycle;Signal;HPM_P1;HPM_P2
2024/01/04 00:01:17;;;;;;;;;;;17.70;43.60;;;;;;1598274;73;1938;-58
2024/01/04 00:03:19;;;;;;;;;;;17.70;43.60;;;;;;1601503;73;1261;-58
2024/01/04 00:05:21;;;;;;;;;;;17.80;43.60;;;;;;1597951;73;779;-59
2024/01/04 00:07:23;;;;;;;;;;;17.80;43.60;;;;;;1596870;73;738;-59
2024/01/04 00:09:25;;;;;;;;;;;17.80;43.60;;;;;;1597882;73;1534;-60
2024/01/04 00:11:27;;;;;;;;;;;17.80;43.60;;;;;;1607431;73;758;-59
2024/01/04 00:13:29;;;;;;;;;;;17.80;43.50;;;;;;1598943;73;1151;-58
2024/01/04 00:15:31;;;;;;;;;;;17.80;43.60;;;;;;1604523;73;994;-57
2024/01/04 00:17:33;;;;;;;;;;;17.80;43.60;;;;;;1595847;73;734;-58
2024/01/04 00:19:35;;;;;;;;;;;17.80;43.60;;;;;;1592883;73;1109;-58
2024/01/04 00:21:40;;;;;;;;;;;17.80;43.50;;;;;;1582896;73;1907;-58
2024/01/04 00:23:42;;;;;;;;;;;17.80;43.50;;;;;;1582103;73;1400;-57
2024/01/04 00:25:43;;;;;;;;;;;17.80;43.60;;;;;;1581330;73;752;-60
2024/01/04 00:27:45;;;;;;;;;;;17.70;43.60;;;;;;1591673;73;707;-58
2024/01/04 00:29:47;;;;;;;;;;;17.80;43.60;;;;;;1586464;73;922;-61
2024/01/04 00:31:49;;;;;;;;;;;17.70;43.60;;;;;;1579621;73;783;-57
2024/01/04 00:33:51;;;;;;;;;;;17.80;43.60;;;;;;1591174;73;1158;-57
2024/01/04 00:35:53;;;;;;;;;;;17.70;43.50;;;;;;1583685;73;816;-54
2024/01/04 00:37:57;;;;;;;;;;;17.80;43.60;;;;;;1577472;73;1526;-60
2024/01/04 00:39:59;;;;;;;;;;;17.80;43.60;;;;;;1586055;73;1923;-57
2024/01/04 00:42:02;;;;;;;;;;;17.80;43.60;;;;;;1578162;73;1934;-58
2024/01/04 00:44:04;;;;;;;;;;;17.80;43.60;;;;;;1584814;73;1107;-60
2024/01/04 00:46:06;;;;;;;;;;;17.80;43.60;;;;;;1578130;73;686;-59
2024/01/04 00:48:08;;;;;;;;;;;17.80;43.60;;;;;;1584782;73;590;-58
2024/01/04 00:50:10;;;;;;;;;;;17.80;43.60;;;;;;1580690;73;737;-57
2024/01/04 00:52:12;;;;;;;;;;;17.80;43.60;;;;;;1576733;73;1541;-60
2024/01/04 00:54:14;;;;;;;;;;;17.80;43.50;;;;;;1589770;73;1125;-57
2024/01/04 00:56:15;;;;;;;;;;;17.80;43.50;;;;;;1580407;73;790;-59
2024/01/04 00:58:17;;;;;;;;;;;17.80;43.50;;;;;;1578001;73;736;-57
2024/01/04 01:00:19;;;;;;;;;;;17.80;43.50;;;;;;1577274;73;1919;-60
2024/01/04 01:02:21;;;;;;;;;;;17.80;43.50;;;;;;1582464;73;752;-58
2024/01/04 01:04:23;;;;;;;;;;;17.70;43.50;;;;;;1575547;73;1105;-57
2024/01/04 01:06:25;;;;;;;;;;;17.70;43.50;;;;;;1577932;73;1482;-58
2024/01/04 01:08:27;;;;;;;;;;;17.80;43.60;;;;;;1581260;73;746;-59
2024/01/04 01:10:29;;;;;;;;;;;17.80;43.50;;;;;;1579763;73;642;-60
2024/01/04 01:12:31;;;;;;;;;;;17.80;43.50;;;;;;1576351;73;740;-58
2024/01/04 01:14:33;;;;;;;;;;;17.80;43.50;;;;;;1585593;73;1152;-58
2024/01/04 01:16:35;;;;;;;;;;;17.80;43.50;;;;;;1587479;73;765;-60
2024/01/04 01:18:39;;;;;;;;;;;17.80;43.50;;;;;;1583658;73;780;-58
2024/01/04 01:20:40;;;;;;;;;;;17.80;43.50;;;;;;1583772;73;1904;-58
2024/01/04 01:22:42;;;;;;;;;;;17.80;43.50;;;;;;1588225;73;814;-56
2024/01/04 01:24:44;;;;;;;;;;;17.80;43.40;;;;;;1593553;73;1113;-56
2024/01/04 01:26:46;;;;;;;;;;;17.70;43.50;;;;;;1597433;73;692;-60
2024/01/04 01:28:48;;;;;;;;;;;17.80;43.50;;;;;;1591451;73;704;-57
2024/01/04 01:30:50;;;;;;;;;;;17.80;43.50;;;;;;1589963;73;693;-60
2024/01/04 01:32:52;;;;;;;;;;;17.70;43.50;;;;;;1595957;73;1281;-61
2024/01/04 01:34:54;;;;;;;;;;;17.80;43.50;;;;;;1592892;73;1669;-57
2024/01/04 01:36:57;;;;;;;;;;;17.80;43.50;;;;;;1587742;73;751;-58
2024/01/04 01:38:59;;;;;;;;;;;17.80;43.50;;;;;;1559798;74;730;-61
2024/01/04 01:41:01;;;;;;;;;;;17.80;43.50;;;;;;1547193;75;1949;-61
2024/01/04 01:43:04;;;;;;;;;;;17.80;43.50;;;;;;1540602;75;1144;-59
2024/01/04 01:45:06;;;;;;;;;;;17.80;43.60;;;;;;1532235;76;749;-58
2024/01/04 01:47:08;;;;;;;;;;;17.70;43.50;;;;;;1532495;76;720;-59
2024/01/04 01:49:10;;;;;;;;;;;17.80;43.50;;;;;;1530649;76;1347;-60
2024/01/04 01:51:13;;;;;;;;;;;17.70;43.50;;;;;;1526178;76;706;-59
2024/01/04 01:53:15;;;;;;;;;;;17.80;43.50;;;;;;1535812;76;1166;-57
2024/01/04 01:55:17;;;;;;;;;;;17.80;43.50;;;;;;1528876;77;746;-58
2024/01/04 01:57:19;;;;;;;;;;;17.70;43.40;;;;;;1526017;77;818;-59
2024/01/04 01:59:21;;;;;;;;;;;17.80;43.50;;;;;;1532036;76;796;-59
2024/01/04 02:01:23;;;;;;;;;;;17.80;43.40;;;;;;1525985;77;1944;-60
2024/01/04 02:03:25;;;;;;;;;;;17.80;43.50;;;;;;1552486;75;1165;-58
2024/01/04 02:05:28;;;;;;;;;;;17.80;43.50;;;;;;1539154;76;710;-60
2024/01/04 02:07:30;;;;;;;;;;;17.80;43.50;;;;;;1543330;75;692;-59
2024/01/04 02:09:32;;;;;;;;;;;17.80;43.50;;;;;;1534962;75;746;-58
2024/01/04 02:11:34;;;;;;;;;;;17.80;43.40;;;;;;1559971;75;800;-56
2024/01/04 02:13:36;;;;;;;;;;;17.80;43.40;;;;;;1522475;76;1104;-58
2024/01/04 02:15:37;;;;;;;;;;;17.80;43.50;;;;;;1556831;74;1551;-56
2024/01/04 02:17:39;;;;;;;;;;;17.70;43.50;;;;;;1524089;76;703;-60
2024/01/04 02:19:41;;;;;;;;;;;17.80;43.40;;;;;;1529433;76;725;-58
2024/01/04 02:21:43;;;;;;;;;;;17.80;43.40;;;;;;1538056;75;1948;-58
2024/01/04 02:23:45;;;;;;;;;;;17.80;43.40;;;;;;1546139;75;1189;-60
2024/01/04 02:25:47;;;;;;;;;;;17.80;43.40;;;;;;1546699;75;718;-58
2024/01/04 02:27:49;;;;;;;;;;;17.80;43.40;;;;;;1541022;75;756;-60
2024/01/04 02:29:51;;;;;;;;;;;17.80;43.40;;;;;;1527880;77;1506;-57
2024/01/04 02:31:53;;;;;;;;;;;17.80;43.40;;;;;;1530041;77;817;-58
2024/01/04 02:33:54;;;;;;;;;;;17.70;43.40;;;;;;1531802;76;1151;-56
2024/01/04 02:35:56;;;;;;;;;;;17.80;43.40;;;;;;1533411;76;781;-58
2024/01/04 02:37:58;;;;;;;;;;;17.70;43.40;;;;;;1532362;76;787;-58
2024/01/04 02:40:00;;;;;;;;;;;17.80;43.30;;;;;;1538794;76;740;-57
2024/01/04 02:42:02;;;;;;;;;;;17.80;43.40;;;;;;1531601;76;1942;-57
2024/01/04 02:44:04;;;;;;;;;;;17.80;43.40;;;;;;1529399;76;1593;-58
2024/01/04 02:46:06;;;;;;;;;;;17.70;43.40;;;;;;1530799;76;727;-61
2024/01/04 02:48:08;;;;;;;;;;;17.70;43.40;;;;;;1526503;77;658;-58
2024/01/04 02:50:11;;;;;;;;;;;17.70;43.40;;;;;;1532276;76;764;-58
2024/01/04 02:52:13;;;;;;;;;;;17.80;43.40;;;;;;1533212;76;722;-58
2024/01/04 02:54:15;;;;;;;;;;;17.80;43.40;;;;;;1526262;77;1151;-59
2024/01/04 02:56:17;;;;;;;;;;;17.70;43.40;;;;;;1525676;77;745;-60
2024/01/04 02:58:19;;;;;;;;;;;17.80;43.40;;;;;;1530076;76;1351;-57
2024/01/04 03:00:22;;;;;;;;;;;17.80;43.40;;;;;;1537225;77;741;-60
2024/01/04 03:02:24;;;;;;;;;;;17.80;43.30;;;;;;1528529;76;1912;-55
2024/01/04 03:04:25;;;;;;;;;;;17.70;43.40;;;;;;1535105;76;1138;-59
2024/01/04 03:06:29;;;;;;;;;;;17.80;43.40;;;;;;1535930;77;761;-58
2024/01/04 03:08:31;;;;;;;;;;;17.80;43.30;;;;;;1533636;76;1607;-60
2024/01/04 03:10:33;;;;;;;;;;;17.80;43.40;;;;;;1528828;77;814;-60
2024/01/04 03:12:37;;;;;;;;;;;17.80;43.40;;;;;;1531377;76;1525;-58
2024/01/04 03:14:39;;;;;;;;;;;17.80;43.30;;;;;;1525094;77;1095;-59
2024/01/04 03:16:41;;;;;;;;;;;17.80;43.30;;;;;;1541917;76;880;-59
2024/01/04 03:18:43;;;;;;;;;;;17.80;43.30;;;;;;1526874;76;751;-58
2024/01/04 03:20:44;;;;;;;;;;;17.80;43.40;;;;;;1529603;76;684;-57
2024/01/04 03:22:46;;;;;;;;;;;17.70;43.30;;;;;;1533503;76;1954;-60
2024/01/04 03:24:48;;;;;;;;;;;17.70;43.30;;;;;;1529099;76;1151;-58
2024/01/04 03:26:50;;;;;;;;;;;17.80;43.40;;;;;;1525908;76;1168;-59
2024/01/04 03:28:52;;;;;;;;;;;17.80;43.30;;;;;;1527850;76;733;-59
2024/01/04 03:30:54;;;;;;;;;;;17.80;43.30;;;;;;1528771;77;728;-59
2024/01/04 03:32:56;;;;;;;;;;;17.80;43.30;;;;;;1537537;76;1067;-58
2024/01/04 03:34:58;;;;;;;;;;;17.80;43.30;;;;;;1526397;76;766;-56
2024/01/04 03:37:00;;;;;;;;;;;17.80;43.30;;;;;;1526429;77;736;-57
2024/01/04 03:39:01;;;;;;;;;;;17.80;43.30;;;;;;1524290;76;663;-58
2024/01/04 03:41:03;;;;;;;;;;;17.80;43.30;;;;;;1530318;76;1560;-60
2024/01/04 03:43:05;;;;;;;;;;;17.70;43.30;;;;;;1532114;77;1998;-60
2024/01/04 03:45:07;;;;;;;;;;;17.80;43.30;;;;;;1524956;76;713;-58
2024/01/04 03:47:09;;;;;;;;;;;17.80;43.30;;;;;;1536343;76;986;-54
2024/01/04 03:49:11;;;;;;;;;;;18.00;43.40;;;;;;1524808;77;648;-57
2024/01/04 03:51:13;;;;;;;;;;;17.80;43.20;;;;;;1530710;76;727;-56
2024/01/04 03:53:15;;;;;;;;;;;17.80;43.20;;;;;;1539587;77;1150;-55
2024/01/04 03:55:17;;;;;;;;;;;17.80;43.30;;;;;;1531679;76;1539;-59
2024/01/04 03:57:19;;;;;;;;;;;17.80;43.30;;;;;;1535715;77;731;-59
2024/01/04 03:59:21;;;;;;;;;;;17.80;43.30;;;;;;1535373;77;707;-59
2024/01/04 04:01:23;;;;;;;;;;;17.70;43.30;;;;;;1528431;77;1932;-56
2024/01/04 04:03:25;;;;;;;;;;;17.70;43.30;;;;;;1527194;77;1126;-59
2024/01/04 04:05:26;;;;;;;;;;;17.80;43.30;;;;;;1533768;76;913;-58
2024/01/04 04:07:28;;;;;;;;;;;17.80;43.30;;;;;;1524178;77;705;-58
2024/01/04 04:09:30;;;;;;;;;;;17.70;43.30;;;;;;1529029;76;1543;-58
2024/01/04 04:11:32;;;;;;;;;;;17.70;43.20;;;;;;1529077;77;676;-60
2024/01/04 04:13:34;;;;;;;;;;;17.70;43.20;;;;;;1535316;77;1124;-57
2024/01/04 04:15:36;;;;;;;;;;;17.80;43.20;;;;;;1527986;77;729;-59
2024/01/04 04:17:38;;;;;;;;;;;17.80;43.30;;;;;;1527763;77;804;-57
2024/01/04 04:19:40;;;;;;;;;;;17.80;43.20;;;;;;1554953;75;667;-58
2024/01/04 04:21:41;;;;;;;;;;;17.80;43.20;;;;;;1552123;75;1935;-58
2024/01/04 04:23:47;;;;;;;;;;;17.80;43.20;;;;;;1563894;74;1536;-58
2024/01/04 04:25:47;;;;;;;;;;;17.80;43.20;;;;;;1559804;74;1675;-60
2024/01/04 04:27:49;;;;;;;;;;;17.80;43.20;;;;;;1561971;74;780;-61
2024/01/04 04:29:51;;;;;;;;;;;17.90;43.30;;;;;;1601051;73;800;-58
2024/01/04 04:31:53;;;;;;;;;;;17.70;43.20;;;;;;1599884;73;776;-58
2024/01/04 04:33:54;;;;;;;;;;;17.80;43.30;;;;;;1595316;73;1175;-57
2024/01/04 04:35:56;;;;;;;;;;;17.80;43.20;;;;;;1544465;75;911;-59
2024/01/04 04:37:58;;;;;;;;;;;17.80;43.20;;;;;;1606351;73;1747;-57
2024/01/04 04:40:00;;;;;;;;;;;17.80;43.20;;;;;;1605434;73;808;-60
2024/01/04 04:42:02;;;;;;;;;;;17.80;43.20;;;;;;1595398;73;1921;-60
2024/01/04 04:44:04;;;;;;;;;;;17.70;43.30;;;;;;1600699;73;1147;-60
2024/01/04 04:46:09;;;;;;;;;;;17.80;43.20;;;;;;1596239;73;732;-56
2024/01/04 04:48:10;;;;;;;;;;;17.80;43.20;;;;;;1608864;73;1550;-57
2024/01/04 04:50:11;;;;;;;;;;;17.80;43.20;;;;;;1602244;73;1519;-58
2024/01/04 04:52:13;;;;;;;;;;;17.70;43.20;;;;;;1604696;73;762;-59
2024/01/04 04:54:17;;;;;;;;;;;17.70;43.20;;;;;;1597004;73;1116;-58
2024/01/04 04:56:19;;;;;;;;;;;17.70;43.20;;;;;;1597406;73;1806;-60
2024/01/04 04:58:21;;;;;;;;;;;17.80;43.20;;;;;;1603827;73;705;-60
2024/01/04 05:00:22;;;;;;;;;;;17.80;43.30;;;;;;1597534;73;722;-60
2024/01/04 05:02:24;;;;;;;;;;;17.80;43.20;;;;;;1597738;73;1929;-60
2024/01/04 05:04:26;;;;;;;;;;;17.70;43.20;;;;;;1598930;73;1357;-58
2024/01/04 05:06:28;;;;;;;;;;;17.70;43.20;;;;;;1544217;75;758;-60
2024/01/04 05:08:30;;;;;;;;;;;17.80;43.20;;;;;;1543681;75;694;-59
2024/01/04 05:10:32;;;;;;;;;;;17.70;43.30;;;;;;1555131;76;702;-58
2024/01/04 05:12:34;;;;;;;;;;;17.80;43.20;;;;;;1541559;76;624;-59
2024/01/04 05:14:36;;;;;;;;;;;17.80;43.20;;;;;;1606812;73;1092;-58
2024/01/04 05:16:38;;;;;;;;;;;17.70;43.30;;;;;;1608894;73;776;-59
2024/01/04 05:18:40;;;;;;;;;;;17.80;43.20;;;;;;1595713;73;1517;-60
2024/01/04 05:20:42;;;;;;;;;;;17.80;43.20;;;;;;1608561;73;835;-53
2024/01/04 05:22:44;;;;;;;;;;;17.80;43.20;;;;;;1601746;73;1941;-57
2024/01/04 05:24:46;;;;;;;;;;;17.80;43.10;;;;;;1617586;73;1156;-57
2024/01/04 05:26:47;;;;;;;;;;;17.80;43.20;;;;;;1600679;73;804;-58
2024/01/04 05:28:49;;;;;;;;;;;17.80;43.20;;;;;;1611641;73;737;-61
2024/01/04 05:30:51;;;;;;;;;;;17.80;43.10;;;;;;1601537;73;725;-59
2024/01/04 05:32:53;;;;;;;;;;;17.80;43.20;;;;;;1600131;73;1321;-53
2024/01/04 05:34:55;;;;;;;;;;;17.70;43.20;;;;;;1606382;73;742;-60
2024/01/04 05:36:57;;;;;;;;;;;17.70;43.20;;;;;;1609385;73;705;-58
2024/01/04 05:38:59;;;;;;;;;;;17.80;43.20;;;;;;1610793;73;680;-58
2024/01/04 05:41:00;;;;;;;;;;;17.80;43.20;;;;;;1613211;73;781;-58
2024/01/04 05:43:02;;;;;;;;;;;17.80;43.20;;;;;;1612055;73;1940;-60
2024/01/04 05:45:05;;;;;;;;;;;17.80;43.30;;;;;;1609178;73;794;-59
2024/01/04 05:47:07;;;;;;;;;;;17.80;43.30;;;;;;1609683;73;1544;-61
2024/01/04 05:49:09;;;;;;;;;;;17.70;43.20;;;;;;1610905;73;747;-60
2024/01/04 05:51:11;;;;;;;;;;;17.70;43.30;;;;;;1607138;73;758;-59
2024/01/04 05:53:13;;;;;;;;;;;17.70;43.20;;;;;;1607356;73;1108;-59
2024/01/04 05:55:14;;;;;;;;;;;17.70;43.20;;;;;;1554099;74;715;-59
2024/01/04 05:57:19;;;;;;;;;;;17.80;43.20;;;;;;1567209;75;768;-58
2024/01/04 05:59:24;;;;;;;;;;;17.70;43.20;;;;;;1558716;74;695;-60
2024/01/04 06:01:25;;;;;;;;;;;17.80;43.20;;;;;;1545512;76;1662;-59
2024/01/04 06:03:27;;;;;;;;;;;17.80;43.20;;;;;;1573582;74;1926;-57
2024/01/04 06:05:29;;;;;;;;;;;17.70;43.20;;;;;;1567780;74;794;-57
2024/01/04 06:07:31;;;;;;;;;;;17.80;43.20;;;;;;1550599;74;751;-59
2024/01/04 06:09:33;;;;;;;;;;;17.80;43.20;;;;;;1574527;74;716;-58
2024/01/04 06:11:38;;;;;;;;;;;17.80;43.20;;;;;;1606479;73;866;-53
2024/01/04 06:13:38;;;;;;;;;;;17.80;43.20;;;;;;1596988;73;1666;-59
2024/01/04 06:15:40;;;;;;;;;;;17.80;43.10;;;;;;1599982;73;1577;-60
2024/01/04 06:17:42;;;;;;;;;;;17.80;43.20;;;;;;1608313;73;841;-60
2024/01/04 06:19:44;;;;;;;;;;;17.70;43.10;;;;;;1595385;73;784;-59
2024/01/04 06:21:46;;;;;;;;;;;17.70;43.20;;;;;;1599438;73;778;-58
2024/01/04 06:23:49;;;;;;;;;;;17.80;43.20;;;;;;1591012;73;1906;-60
2024/01/04 06:25:51;;;;;;;;;;;17.80;43.10;;;;;;1585487;74;783;-59
2024/01/04 06:27:53;;;;;;;;;;;17.80;43.20;;;;;;1581952;73;729;-59
2024/01/04 06:29:55;;;;;;;;;;;17.70;43.20;;;;;;1583414;73;1544;-57
2024/01/04 06:31:57;;;;;;;;;;;17.70;43.10;;;;;;1581077;74;742;-58
2024/01/04 06:33:59;;;;;;;;;;;17.80;43.20;;;;;;1580819;74;1168;-58
2024/01/04 06:36:02;;;;;;;;;;;17.80;43.10;;;;;;1582749;73;745;-59
2024/01/04 06:38:07;;;;;;;;;;;17.70;43.20;;;;;;1560433;74;771;-59
2024/01/04 06:40:10;;;;;;;;;;;17.70;43.10;;;;;;1583720;74;1758;-57
2024/01/04 06:42:14;;;;;;;;;;;17.70;43.20;;;;;;1578573;73;1677;-59
2024/01/04 06:44:15;;;;;;;;;;;17.70;43.10;;;;;;1577628;73;1939;-59
2024/01/04 06:46:17;;;;;;;;;;;17.80;43.10;;;;;;1577660;73;745;-57
2024/01/04 06:48:19;;;;;;;;;;;17.80;43.10;;;;;;1588098;73;728;-52
2024/01/04 06:50:21;;;;;;;;;;;17.80;43.10;;;;;;1561912;74;804;-60
2024/01/04 06:52:23;;;;;;;;;;;17.70;43.10;;;;;;1578813;73;707;-56
2024/01/04 06:54:25;;;;;;;;;;;17.80;43.10;;;;;;1585969;73;1135;-55
2024/01/04 06:56:27;;;;;;;;;;;17.80;43.10;;;;;;1581853;73;721;-58
2024/01/04 06:58:29;;;;;;;;;;;17.70;43.10;;;;;;1581530;73;1650;-59
2024/01/04 07:00:31;;;;;;;;;;;17.80;43.10;;;;;;1580280;73;848;-59
2024/01/04 07:02:35;;;;;;;;;;;17.70;43.10;;;;;;1587960;74;1930;-60
2024/01/04 07:04:36;;;;;;;;;;;17.80;43.10;;;;;;1582119;73;1648;-58
2024/01/04 07:06:38;;;;;;;;;;;17.80;43.10;;;;;;1583098;73;730;-55
2024/01/04 07:08:40;;;;;;;;;;;17.80;43.10;;;;;;1596813;73;746;-58
2024/01/04 07:10:42;;;;;;;;;;;17.70;43.10;;;;;;1579087;73;771;-58
2024/01/04 07:12:44;;;;;;;;;;;17.80;43.10;;;;;;1580177;73;725;-58
2024/01/04 07:14:46;;;;;;;;;;;17.80;43.10;;;;;;1580803;73;1128;-58
2024/01/04 07:16:50;;;;;;;;;;;17.70;43.10;;;;;;1581820;73;675;-57
2024/01/04 07:18:51;;;;;;;;;;;17.70;43.10;;;;;;1579365;73;789;-58
2024/01/04 07:20:53;;;;;;;;;;;17.80;43.10;;;;;;1579371;73;574;-58
2024/01/04 07:22:55;;;;;;;;;;;17.70;43.10;;;;;;1578577;74;1937;-59
2024/01/04 07:24:57;;;;;;;;;;;17.70;43.10;;;;;;1580332;73;1491;-59
2024/01/04 07:26:59;;;;;;;;;;;17.80;43.10;;;;;;1586687;73;754;-58
2024/01/04 07:29:01;;;;;;;;;;;17.80;43.10;;;;;;1582632;73;616;-59
2024/01/04 07:31:03;;;;;;;;;;;17.70;43.10;;;;;;1582313;74;777;-61
2024/01/04 07:33:05;;;;;;;;;;;17.70;43.10;;;;;;1581423;73;1172;-57
2024/01/04 07:35:09;;;;;;;;;;;17.70;43.10;;;;;;1580045;73;768;-58
2024/01/04 07:37:15;;;;;;;;;;;17.80;43.10;;;;;;1588515;73;881;-57
2024/01/04 07:39:15;;;;;;;;;;;17.80;43.10;;;;;;1577319;73;1548;-60
2024/01/04 07:41:17;;;;;;;;;;;17.80;43.20;;;;;;1581596;73;716;-55
2024/01/04 07:43:20;;;;;;;;;;;17.80;43.20;;;;;;1577895;73;1926;-59
2024/01/04 07:45:22;;;;;;;;;;;17.80;43.10;;;;;;1579512;73;762;-55
2024/01/04 07:47:23;;;;;;;;;;;17.70;43.10;;;;;;1586003;73;685;-57
2024/01/04 07:49:25;;;;;;;;;;;17.80;43.10;;;;;;1581590;73;779;-58
2024/01/04 07:51:27;;;;;;;;;;;17.70;43.10;;;;;;1578198;74;588;-59
2024/01/04 07:53:29;;;;;;;;;;;17.80;43.10;;;;;;1577339;73;1386;-59
2024/01/04 07:55:31;;;;;;;;;;;17.80;43.10;;;;;;1578177;73;733;-58
2024/01/04 07:57:34;;;;;;;;;;;17.70;43.10;;;;;;1579336;74;783;-58
2024/01/04 07:59:36;;;;;;;;;;;17.70;43.10;;;;;;1583234;73;701;-60
2024/01/04 08:01:38;;;;;;;;;;;17.80;43.20;;;;;;1582942;73;747;-60
2024/01/04 08:03:40;;;;;;;;;;;17.70;43.20;;;;;;1581001;74;1938;-60
2024/01/04 08:05:42;;;;;;;;;;;17.80;43.10;;;;;;1580261;73;742;-59
2024/01/04 08:07:44;;;;;;;;;;;17.70;43.10;;;;;;1579993;73;1579;-60
2024/01/04 08:09:46;;;;;;;;;;;17.80;43.10;;;;;;1580718;74;697;-58
2024/01/04 08:11:48;;;;;;;;;;;17.80;43.10;;;;;;1585519;73;797;-59
2024/01/04 08:13:53;;;;;;;;;;;17.70;43.10;;;;;;1583379;73;1128;-59
2024/01/04 08:15:55;;;;;;;;;;;17.70;43.10;;;;;;1585734;73;673;-59
2024/01/04 08:17:57;;;;;;;;;;;17.70;43.10;;;;;;1579555;74;815;-58
2024/01/04 08:19:58;;;;;;;;;;;17.70;43.10;;;;;;1587875;73;723;-57
2024/01/04 08:22:01;;;;;;;;;;;17.70;43.10;;;;;;1585575;73;1528;-59
2024/01/04 08:24:03;;;;;;;;;;;17.80;43.10;;;;;;1578654;73;1922;-55
2024/01/04 08:26:05;;;;;;;;;;;17.80;43.10;;;;;;1578645;73;760;-58
2024/01/04 08:28:11;;;;;;;;;;;17.80;43.10;;;;;;1581240;73;724;-58
2024/01/04 08:30:13;;;;;;;;;;;17.80;43.10;;;;;;1587112;74;1215;-58
2024/01/04 08:32:15;;;;;;;;;;;17.80;43.10;;;;;;1550446;74;670;-57
2024/01/04 08:34:17;;;;;;;;;;;17.70;43.10;;;;;;1557620;74;1161;-57
2024/01/04 08:36:19;;;;;;;;;;;17.70;43.10;;;;;;1514862;75;1362;-57
2024/01/04 08:38:21;;;;;;;;;;;17.80;43.10;;;;;;1559447;74;672;-56
2024/01/04 08:40:23;;;;;;;;;;;17.70;43.10;;;;;;1559752;74;693;-56
2024/01/04 08:42:25;;;;;;;;;;;17.80;43.10;;;;;;1559907;74;726;-57
2024/01/04 08:44:27;;;;;;;;;;;17.80;43.10;;;;;;1525019;75;1930;-54
2024/01/04 08:46:30;;;;;;;;;;;17.80;43.10;;;;;;1528564;77;724;-58
2024/01/04 08:48:31;;;;;;;;;;;17.80;43.10;;;;;;1529910;77;656;-58
2024/01/04 08:50:33;;;;;;;;;;;17.80;43.10;;;;;;1538073;77;1292;-59
2024/01/04 08:52:35;;;;;;;;;;;17.80;43.10;;;;;;1531964;76;764;-57
2024/01/04 08:54:37;;;;;;;;;;;17.80;43.10;;;;;;1534566;76;1138;-58
2024/01/04 08:56:39;;;;;;;;;;;17.70;43.10;;;;;;1530974;76;773;-59
2024/01/04 08:58:41;;;;;;;;;;;17.80;43.10;;;;;;1528449;76;932;-59
2024/01/04 09:00:43;;;;;;;;;;;17.70;43.10;;;;;;1528904;76;783;-59
2024/01/04 09:02:46;;;;;;;;;;;17.70;43.10;;;;;;1536075;77;768;-58
2024/01/04 09:04:47;;;;;;;;;;;17.80;43.10;;;;;;1529384;77;1925;-59
2024/01/04 09:06:49;;;;;;;;;;;17.80;43.10;;;;;;1534896;76;714;-58
2024/01/04 09:08:51;;;;;;;;;;;17.80;43.10;;;;;;1533888;76;668;-58
2024/01/04 09:10:53;;;;;;;;;;;17.70;43.10;;;;;;1532724;76;752;-58
2024/01/04 09:12:55;;;;;;;;;;;17.80;43.10;;;;;;1551424;74;1153;-57
2024/01/04 09:14:57;;;;;;;;;;;17.80;43.10;;;;;;1518967;75;719;-59
2024/01/04 09:16:59;;;;;;;;;;;17.70;43.20;;;;;;1539259;76;712;-60
2024/01/04 09:19:01;;;;;;;;;;;17.80;43.20;;;;;;1536943;76;1320;-60
2024/01/04 09:21:03;;;;;;;;;;;17.70;43.10;;;;;;1535492;76;696;-59
2024/01/04 09:23:06;;;;;;;;;;;17.80;43.10;;;;;;1531242;76;1154;-56
2024/01/04 09:25:08;;;;;;;;;;;17.80;43.10;;;;;;1534929;76;1911;-60
2024/01/04 09:27:12;;;;;;;;;;;17.80;43.10;;;;;;1535778;76;695;-59
2024/01/04 09:29:16;;;;;;;;;;;17.80;43.10;;;;;;1545783;76;942;-58
2024/01/04 09:31:18;;;;;;;;;;;17.70;43.10;;;;;;1532594;76;641;-59
2024/01/04 09:33:23;;;;;;;;;;;17.80;43.10;;;;;;1539042;76;1576;-58
2024/01/04 09:35:23;;;;;;;;;;;17.80;43.10;;;;;;1533190;76;1672;-59
2024/01/04 09:37:25;;;;;;;;;;;17.70;43.20;;;;;;1543631;76;813;-55
2024/01/04 09:39:27;;;;;;;;;;;17.80;43.10;;;;;;1530785;76;731;-58
2024/01/04 09:41:30;;;;;;;;;;;17.70;43.10;;;;;;1539612;76;676;-58
2024/01/04 09:43:32;;;;;;;;;;;17.80;43.10;;;;;;1531713;76;1950;-58
2024/01/04 09:45:34;;;;;;;;;;;17.70;43.10;;;;;;1536115;76;1521;-59
2024/01/04 09:47:36;;;;;;;;;;;17.70;43.10;;;;;;1524416;76;775;-58
2024/01/04 09:49:38;;;;;;;;;;;17.80;43.10;;;;;;1529952;76;681;-57
2024/01/04 09:51:41;;;;;;;;;;;17.70;43.10;;;;;;1531803;76;757;-60
2024/01/04 09:53:43;;;;;;;;;;;17.80;43.10;;;;;;1531153;76;1149;-60
2024/01/04 09:55:45;;;;;;;;;;;17.80;43.10;;;;;;1536458;76;673;-57
2024/01/04 09:57:47;;;;;;;;;;;17.80;43.10;;;;;;1531596;76;728;-58
2024/01/04 09:59:49;;;;;;;;;;;17.80;43.10;;;;;;1533469;76;1550;-60
2024/01/04 10:01:51;;;;;;;;;;;17.80;43.10;;;;;;1532702;76;738;-58
2024/01/04 10:03:53;;;;;;;;;;;17.80;43.10;;;;;;1535389;76;1927;-58
2024/01/04 10:05:55;;;;;;;;;;;17.70;43.10;;;;;;1532277;76;683;-60
2024/01/04 10:07:57;;;;;;;;;;;17.70;42.90;;;;;;1533504;76;766;-57
2024/01/04 10:10:01;;;;;;;;;;;17.80;41.60;;;;;;1531669;76;802;-55
2024/01/04 10:12:10;;;;;;;;;;;17.70;41.80;;;;;;1534188;76;1968;-56
2024/01/04 10:14:12;;;;;;;;;;;17.70;42.50;;;;;;1535383;76;1616;-54
2024/01/04 10:16:14;;;;;;;;;;;17.70;42.90;;;;;;1535988;76;817;-56
2024/01/04 10:18:16;;;;;;;;;;;17.70;43.00;;;;;;1533891;76;728;-56
2024/01/04 10:20:17;;;;;;;;;;;17.80;43.00;;;;;;1534792;76;837;-56
2024/01/04 10:22:22;;;;;;;;;;;17.70;43.10;;;;;;1539331;76;756;-53
2024/01/04 10:24:24;;;;;;;;;;;17.80;43.10;;;;;;1536427;76;1922;-56
2024/01/04 10:26:27;;;;;;;;;;;17.70;43.20;;;;;;1539357;76;1014;-58
2024/01/04 10:28:29;;;;;;;;;;;17.80;43.20;;;;;;1532615;76;1554;-56
2024/01/04 10:30:31;;;;;;;;;;;17.70;41.70;;;;;;1539531;76;805;-59
2024/01/04 10:32:33;;;;;;;;;;;17.70;41.50;;;;;;1533545;76;772;-58
2024/01/04 10:34:35;;;;;;;;;;;17.60;41.50;;;;;;1538308;76;1202;-58
2024/01/04 10:36:40;;;;;;;;;;;17.60;41.90;;;;;;1533958;76;752;-59
2024/01/04 10:38:41;;;;;;;;;;;17.70;42.50;;;;;;1537014;76;1630;-58
2024/01/04 10:40:42;;;;;;;;;;;17.60;42.30;;;;;;1539523;76;732;-58
2024/01/04 10:42:46;;;;;;;;;;;17.60;42.20;;;;;;1535798;76;1552;-59
2024/01/04 10:44:49;;;;;;;;;;;17.60;42.30;;;;;;1532062;76;1932;-59
2024/01/04 10:46:57;;;;;;;;;;;17.60;42.90;;;;;;1537472;76;1076;-57
2024/01/04 10:48:59;;;;;;;;;;;17.70;43.20;;;;;;1535482;76;724;-59
2024/01/04 10:51:03;;;;;;;;;;;17.70;43.20;;;;;;1537853;76;733;-58
2024/01/04 10:53:06;;;;;;;;;;;17.80;43.20;;;;;;1532407;76;1137;-58
2024/01/04 10:55:08;;;;;;;;;;;17.80;43.20;;;;;;1542883;76;791;-59
2024/01/04 10:57:11;;;;;;;;;;;17.80;42.10;;;;;;1537557;76;1580;-59
2024/01/04 10:59:13;;;;;;;;;;;17.80;42.30;;;;;;1536490;76;784;-59
2024/01/04 11:01:14;;;;;;;;;;;17.80;42.30;;;;;;1533725;76;830;-59
2024/01/04 11:03:16;;;;;;;;;;;17.70;42.30;;;;;;1538199;76;1138;-58
2024/01/04 11:05:18;;;;;;;;;;;17.70;42.40;;;;;;1540686;76;1952;-58
2024/01/04 11:07:20;;;;;;;;;;;17.70;42.50;;;;;;1535429;76;665;-59
2024/01/04 11:09:25;;;;;;;;;;;17.70;42.60;;;;;;1538636;76;780;-60
2024/01/04 11:11:27;;;;;;;;;;;17.70;42.90;;;;;;1534367;76;1380;-59
2024/01/04 11:13:29;;;;;;;;;;;17.70;43.10;;;;;;1536687;76;1114;-59
2024/01/04 11:15:31;;;;;;;;;;;17.80;43.10;;;;;;1540830;76;675;-57
2024/01/04 11:17:38;;;;;;;;;;;17.70;43.20;;;;;;1534679;76;1137;-59
2024/01/04 11:19:42;;;;;;;;;;;17.80;43.40;;;;;;1535621;76;1058;-57
2024/01/04 11:21:51;;;;;;;;;;;17.80;43.20;;;;;;1534029;76;744;-59
2024/01/04 11:23:55;;;;;;;;;;;17.90;43.20;;;;;;1532589;76;1986;-55
2024/01/04 11:25:58;;;;;;;;;;;17.80;43.20;;;;;;1538157;76;1956;-58
2024/01/04 11:28:00;;;;;;;;;;;17.90;43.40;;;;;;1535991;76;1875;-61
2024/01/04 11:30:03;;;;;;;;;;;17.80;43.30;;;;;;1533032;76;788;-59
2024/01/04 11:32:05;;;;;;;;;;;17.90;43.40;;;;;;1531227;76;739;-59
2024/01/04 11:34:09;;;;;;;;;;;17.90;43.50;;;;;;1532632;76;1140;-58
2024/01/04 11:36:13;;;;;;;;;;;17.80;43.40;;;;;;1532092;76;740;-54
2024/01/04 11:38:16;;;;;;;;;;;17.90;43.50;;;;;;1533162;76;1524;-59
2024/01/04 11:40:29;;;;;;;;;;;17.90;43.50;;;;;;1509345;77;1197;-59
2024/01/04 11:42:40;;;;;;;;;;;17.90;43.50;;;;;;1532790;76;842;-58
2024/01/04 11:44:39;;;;;;;;;;;17.90;43.50;;;;;;1533232;76;1932;-59
2024/01/04 11:46:44;;;;;;;;;;;17.90;43.50;;;;;;1529260;76;783;-57
2024/01/04 11:48:55;;;;;;;;;;;17.90;43.50;;;;;;1531276;76;762;-59
2024/01/04 11:50:59;;;;;;;;;;;17.90;43.50;;;;;;1533066;76;686;-58
2024/01/04 11:53:04;;;;;;;;;;;17.90;43.50;;;;;;1535021;76;1523;-58
2024/01/04 11:55:06;;;;;;;;;;;17.90;43.50;;;;;;1545342;76;833;-60
2024/01/04 11:57:17;;;;;;;;;;;17.90;43.50;;;;;;1540399;76;736;-59
2024/01/04 11:59:21;;;;;;;;;;;17.90;43.50;;;;;;1531972;76;796;-58
2024/01/04 12:01:23;;;;;;;;;;;17.90;43.50;;;;;;1533034;76;761;-55
2024/01/04 12:03:28;;;;;;;;;;;17.90;43.50;;;;;;1532530;76;1166;-54
2024/01/04 12:05:30;;;;;;;;;;;17.90;43.50;;;;;;1544421;76;1946;-59
2024/01/04 12:07:33;;;;;;;;;;;17.90;43.50;;;;;;1535789;76;1594;-59
2024/01/04 12:09:35;;;;;;;;;;;17.90;43.60;;;;;;1534428;76;824;-56